createdAt,value
2018-06-25T00:01:03.964Z,98402.95
2018-06-25T00:02:08.499Z,98405.77
2018-06-25T00:03:13.094Z,98408.37
2018-06-25T00:04:17.737Z,98406.93
2018-06-25T00:05:22.730Z,98408.17
2018-06-25T00:06:28.249Z,98406.16
2018-06-25T00:07:32.856Z,98405.08
2018-06-25T00:08:37.361Z,98406.79
2018-06-25T00:09:41.993Z,98408.05
2018-06-25T00:10:46.605Z,98411.03
2018-06-25T00:11:51.596Z,98414.37
2018-06-25T00:12:56.220Z,98418.61
2018-06-25T00:14:00.701Z,98413.73
2018-06-25T00:15:05.397Z,98416.17
2018-06-25T00:16:12.794Z,98419.14
2018-06-25T00:17:19.985Z,98404.52
2018-06-25T00:18:25.985Z,98406.08
2018-06-25T00:19:33.542Z,98406.52
2018-06-25T00:20:43.028Z,98407.94
2018-06-25T00:21:49.472Z,98403.70
2018-06-25T00:22:54.901Z,98406.52
2018-06-25T00:24:02.239Z,98403.82
2018-06-25T00:25:09.865Z,98407.24
2018-06-25T00:26:14.967Z,98403.82
2018-06-25T00:27:20.441Z,98402.55
2018-06-25T00:28:28.587Z,98397.87
2018-06-25T00:29:34.815Z,98402.02
2018-06-25T00:30:41.630Z,98396.06
2018-06-25T00:31:54.231Z,98396.97
2018-06-25T00:33:00.758Z,98390.66
2018-06-25T00:34:07.455Z,98391.89
2018-06-25T00:35:12.075Z,98392.16
2018-06-25T00:36:17.341Z,98385.22
2018-06-25T00:37:22.466Z,98384.64
2018-06-25T00:38:28.585Z,98388.83
2018-06-25T00:39:33.327Z,98385.63
2018-06-25T00:40:39.388Z,98386.80
2018-06-25T00:41:44.044Z,98390.31
2018-06-25T00:42:48.761Z,98389.59
2018-06-25T00:43:53.475Z,98388.06
2018-06-25T00:44:58.606Z,98390.95
2018-06-25T00:46:03.235Z,98397.08
2018-06-25T00:47:07.857Z,98400.63
2018-06-25T00:48:12.541Z,98395.13
2018-06-25T00:49:17.216Z,98400.09
2018-06-25T00:50:22.045Z,98397.84
2018-06-25T00:51:27.127Z,98396.58
2018-06-25T00:52:32.702Z,98398.56
2018-06-25T00:53:37.234Z,98395.50
2018-06-25T00:54:41.763Z,98399.19
2018-06-25T00:55:46.295Z,98404.23
2018-06-25T00:56:50.836Z,98401.08
2018-06-25T00:57:55.733Z,98404.69
2018-06-25T00:59:05.394Z,98404.36
2018-06-25T01:00:09.880Z,98403.70
2018-06-25T01:01:14.800Z,98402.73
2018-06-25T01:02:19.675Z,98405.44
2018-06-25T01:03:24.316Z,98404.54
2018-06-25T01:04:29.307Z,98406.16
2018-06-25T01:05:33.911Z,98407.97
2018-06-25T01:06:38.523Z,98410.13
2018-06-25T01:07:43.357Z,98409.68
2018-06-25T01:08:49.831Z,98406.88
2018-06-25T01:09:54.403Z,98414.37
2018-06-25T01:10:59.309Z,98410.84
2018-06-25T01:12:03.928Z,98408.69
2018-06-25T01:13:08.560Z,98406.25
2018-06-25T01:14:13.938Z,98410.67
2018-06-25T01:15:18.609Z,98409.05
2018-06-25T01:16:24.249Z,98410.94
2018-06-25T01:17:29.161Z,98407.06
2018-06-25T01:18:33.779Z,98404.90
2018-06-25T01:19:38.531Z,98410.13
2018-06-25T01:20:43.064Z,98410.13
2018-06-25T01:21:48.110Z,98408.62
2018-06-25T01:22:52.630Z,98408.28
2018-06-25T01:23:57.404Z,98412.61
2018-06-25T01:25:01.988Z,98404.50
2018-06-25T01:26:06.517Z,98397.28
2018-06-25T01:27:11.520Z,98402.06
2018-06-25T01:28:16.015Z,98397.69
2018-06-25T01:29:20.541Z,98390.38
2018-06-25T01:30:26.774Z,98389.66
2018-06-25T01:31:31.298Z,98385.52
2018-06-25T01:32:36.776Z,98386.33
2018-06-25T01:33:41.332Z,98387.59
2018-06-25T01:34:45.869Z,98389.66
2018-06-25T01:35:50.349Z,98393.09
2018-06-25T01:36:55.181Z,98394.08
2018-06-25T01:37:59.684Z,98392.27
2018-06-25T01:39:05.163Z,98390.28
2018-06-25T01:40:09.666Z,98393.17
2018-06-25T01:41:15.202Z,98387.14
2018-06-25T01:42:19.761Z,98390.30
2018-06-25T01:43:24.520Z,98389.30
2018-06-25T01:44:29.200Z,98390.11
2018-06-25T01:45:33.765Z,98395.70
2018-06-25T01:46:38.494Z,98396.42
2018-06-25T01:47:43.091Z,98394.16
2018-06-25T01:48:47.633Z,98391.55
2018-06-25T01:49:52.617Z,98390.20
2018-06-25T01:50:58.092Z,98393.80
2018-06-25T01:52:03.866Z,98390.30
2018-06-25T01:53:09.034Z,98386.15
2018-06-25T01:54:13.633Z,98391.38
2018-06-25T01:55:18.271Z,98379.93
2018-06-25T01:56:23.156Z,98388.64
2018-06-25T01:57:27.985Z,98387.59
2018-06-25T01:58:32.661Z,98381.80
2018-06-25T01:59:37.704Z,98386.94
2018-06-25T02:00:42.384Z,98388.92
2018-06-25T02:01:48.158Z,98392.07
2018-06-25T02:02:53.118Z,98386.21
2018-06-25T02:03:58.825Z,98390.81
2018-06-25T02:05:03.596Z,98392.25
2018-06-25T02:06:08.294Z,98392.79
2018-06-25T02:07:12.944Z,98384.68
2018-06-25T02:08:17.432Z,98387.56
2018-06-25T02:09:22.286Z,98390.36
2018-06-25T02:10:26.802Z,98386.84
2018-06-25T02:11:31.297Z,98390.45
2018-06-25T02:12:35.891Z,98388.47
2018-06-25T02:13:40.405Z,98386.44
2018-06-25T02:14:44.958Z,98389.61
2018-06-25T02:15:49.761Z,98385.03
2018-06-25T02:16:54.420Z,98392.15
2018-06-25T02:17:58.901Z,98392.23
2018-06-25T02:19:03.485Z,98391.52
2018-06-25T02:20:08.321Z,98394.00
2018-06-25T02:21:12.803Z,98392.11
2018-06-25T02:22:17.622Z,98391.16
2018-06-25T02:23:22.291Z,98389.54
2018-06-25T02:24:26.822Z,98389.45
2018-06-25T02:25:31.425Z,98393.50
2018-06-25T02:26:35.999Z,98397.02
2018-06-25T02:27:40.592Z,98391.61
2018-06-25T02:28:45.484Z,98392.37
2018-06-25T02:29:50.018Z,98395.08
2018-06-25T02:30:54.749Z,98393.33
2018-06-25T02:31:59.474Z,98392.73
2018-06-25T02:33:04.354Z,98397.47
2018-06-25T02:34:08.978Z,98399.31
2018-06-25T02:35:13.979Z,98395.80
2018-06-25T02:36:18.706Z,98396.88
2018-06-25T02:37:23.316Z,98398.33
2018-06-25T02:38:27.967Z,98389.50
2018-06-25T02:39:32.594Z,98389.41
2018-06-25T02:40:38.295Z,98389.17
2018-06-25T02:41:43.236Z,98378.81
2018-06-25T02:42:48.901Z,98383.23
2018-06-25T02:43:53.528Z,98382.42
2018-06-25T02:44:58.540Z,98381.15
2018-06-25T02:46:03.930Z,98378.53
2018-06-25T02:47:08.554Z,98384.19
2018-06-25T02:48:14.076Z,98382.66
2018-06-25T02:49:19.681Z,98380.64
2018-06-25T02:50:24.960Z,98384.19
2018-06-25T02:51:29.629Z,98382.39
2018-06-25T02:52:34.798Z,98381.67
2018-06-25T02:53:39.486Z,98381.22
2018-06-25T02:54:45.151Z,98383.97
2018-06-25T02:55:49.787Z,98385.23
2018-06-25T02:56:54.389Z,98383.52
2018-06-25T02:57:58.879Z,98384.23
2018-06-25T02:59:04.367Z,98382.12
2018-06-25T03:00:08.969Z,98383.30
2018-06-25T03:01:13.820Z,98385.45
2018-06-25T03:02:18.434Z,98380.86
2018-06-25T03:03:22.916Z,98388.08
2018-06-25T03:04:27.408Z,98388.35
2018-06-25T03:05:32.077Z,98396.47
2018-06-25T03:06:36.694Z,98397.73
2018-06-25T03:07:41.678Z,98392.06
2018-06-25T03:08:46.305Z,98390.71
2018-06-25T03:09:51.934Z,98393.17
2018-06-25T03:10:56.596Z,98390.84
2018-06-25T03:12:01.204Z,98389.77
2018-06-25T03:13:06.691Z,98396.16
2018-06-25T03:14:11.838Z,98390.75
2018-06-25T03:15:16.477Z,98392.83
2018-06-25T03:16:21.168Z,98389.86
2018-06-25T03:17:25.801Z,98392.29
2018-06-25T03:18:30.448Z,98394.46
2018-06-25T03:19:34.984Z,98393.11
2018-06-25T03:20:39.812Z,98394.63
2018-06-25T03:21:44.295Z,98389.98
2018-06-25T03:22:48.778Z,98391.42
2018-06-25T03:23:53.285Z,98392.50
2018-06-25T03:24:57.774Z,98399.35
2018-06-25T03:26:02.574Z,98394.83
2018-06-25T03:27:07.085Z,98395.02
2018-06-25T03:28:11.640Z,98393.50
2018-06-25T03:29:16.172Z,98400.15
2018-06-25T03:30:20.735Z,98397.00
2018-06-25T03:31:25.275Z,98400.44
2018-06-25T03:32:30.140Z,98404.80
2018-06-25T03:33:34.757Z,98402.47
2018-06-25T03:34:39.307Z,98399.94
2018-06-25T03:35:43.845Z,98401.11
2018-06-25T03:36:48.398Z,98399.25
2018-06-25T03:37:52.920Z,98405.28
2018-06-25T03:38:57.756Z,98408.18
2018-06-25T03:40:02.272Z,98405.02
2018-06-25T03:41:06.804Z,98407.27
2018-06-25T03:42:11.878Z,98406.00
2018-06-25T03:43:17.342Z,98413.76
2018-06-25T03:44:21.861Z,98412.48
2018-06-25T03:45:26.713Z,98412.03
2018-06-25T03:46:31.253Z,98406.34
2018-06-25T03:47:35.806Z,98406.66
2018-06-25T03:48:40.342Z,98406.81
2018-06-25T03:49:44.900Z,98404.99
2018-06-25T03:50:49.400Z,98407.85
2018-06-25T03:51:53.982Z,98413.00
2018-06-25T03:52:58.540Z,98410.23
2018-06-25T03:54:03.059Z,98414.54
2018-06-25T03:55:07.669Z,98413.62
2018-06-25T03:56:13.032Z,98410.03
2018-06-25T03:57:18.456Z,98408.23
2018-06-25T03:58:23.349Z,98413.62
2018-06-25T03:59:27.890Z,98413.09
2018-06-25T04:00:32.421Z,98420.23
2018-06-25T04:01:36.953Z,98422.23
2018-06-25T04:02:43.224Z,98415.33
2018-06-25T04:03:47.753Z,98415.27
2018-06-25T04:04:52.688Z,98416.14
2018-06-25T04:05:57.296Z,98416.87
2018-06-25T04:07:01.762Z,98427.51
2018-06-25T04:08:06.286Z,98428.16
2018-06-25T04:09:12.318Z,98427.53
2018-06-25T04:10:16.860Z,98426.91
2018-06-25T04:11:21.632Z,98422.69
2018-06-25T04:12:26.117Z,98426.02
2018-06-25T04:13:30.711Z,98431.92
2018-06-25T04:14:35.202Z,98435.00
2018-06-25T04:15:39.715Z,98436.09
2018-06-25T04:16:44.622Z,98430.34
2018-06-25T04:17:49.480Z,98431.82
2018-06-25T04:19:00.320Z,98431.96
2018-06-25T04:20:06.082Z,98433.81
2018-06-25T04:21:11.387Z,98437.87
2018-06-25T04:22:15.925Z,98436.34
2018-06-25T04:23:20.408Z,98434.34
2018-06-25T04:24:25.984Z,98436.78
2018-06-25T04:25:31.020Z,98439.31
2018-06-25T04:26:35.958Z,98437.80
2018-06-25T04:27:41.490Z,98442.84
2018-06-25T04:28:46.071Z,98440.31
2018-06-25T04:29:51.148Z,98448.88
2018-06-25T04:30:56.721Z,98448.26
2018-06-25T04:32:01.314Z,98453.61
2018-06-25T04:33:07.641Z,98449.02
2018-06-25T04:34:13.633Z,98452.45
2018-06-25T04:35:18.933Z,98456.23
2018-06-25T04:36:23.413Z,98457.23
2018-06-25T04:37:28.645Z,98455.24
2018-06-25T04:38:33.460Z,98463.35
2018-06-25T04:39:37.932Z,98457.49
2018-06-25T04:40:43.062Z,98460.91
2018-06-25T04:41:47.580Z,98459.61
2018-06-25T04:42:52.356Z,98457.48
2018-06-25T04:43:57.552Z,98465.23
2018-06-25T04:45:02.079Z,98465.25
2018-06-25T04:46:06.619Z,98466.34
2018-06-25T04:47:11.204Z,98467.52
2018-06-25T04:48:16.714Z,98467.15
2018-06-25T04:49:21.262Z,98475.44
2018-06-25T04:50:26.284Z,98475.36
2018-06-25T04:51:30.901Z,98471.41
2018-06-25T04:52:35.450Z,98471.45
2018-06-25T04:53:41.080Z,98474.17
2018-06-25T04:54:45.688Z,98470.20
2018-06-25T04:55:51.221Z,98476.24
2018-06-25T04:56:56.181Z,98475.62
2018-06-25T04:58:00.768Z,98470.58
2018-06-25T04:59:05.297Z,98471.03
2018-06-25T05:00:09.825Z,98470.92
2018-06-25T05:01:14.401Z,98466.52
2018-06-25T05:02:18.952Z,98466.88
2018-06-25T05:03:23.901Z,98467.52
2018-06-25T05:04:28.423Z,98470.48
2018-06-25T05:05:33.053Z,98472.74
2018-06-25T05:06:37.568Z,98474.41
2018-06-25T05:07:42.139Z,98473.05
2018-06-25T05:08:46.712Z,98483.87
2018-06-25T05:09:51.893Z,98477.29
2018-06-25T05:10:56.593Z,98476.03
2018-06-25T05:12:01.227Z,98477.56
2018-06-25T05:13:05.888Z,98477.47
2018-06-25T05:14:10.542Z,98484.33
2018-06-25T05:15:15.224Z,98482.98
2018-06-25T05:16:20.336Z,98485.14
2018-06-25T05:17:25.064Z,98479.19
2018-06-25T05:18:30.513Z,98482.52
2018-06-25T05:19:35.386Z,98484.05
2018-06-25T05:20:40.045Z,98478.47
2018-06-25T05:21:45.609Z,98479.36
2018-06-25T05:22:50.721Z,98486.48
2018-06-25T05:23:55.402Z,98478.69
2018-06-25T05:25:00.042Z,98480.85
2018-06-25T05:26:04.771Z,98477.20
2018-06-25T05:27:09.459Z,98479.41
2018-06-25T05:28:14.210Z,98484.95
2018-06-25T05:29:20.711Z,98481.89
2018-06-25T05:30:25.381Z,98478.83
2018-06-25T05:31:30.099Z,98479.36
2018-06-25T05:32:34.785Z,98479.81
2018-06-25T05:33:39.579Z,98486.75
2018-06-25T05:34:45.050Z,98488.83
2018-06-25T05:35:50.209Z,98494.51
2018-06-25T05:36:55.157Z,98495.41
2018-06-25T05:37:59.862Z,98494.65
2018-06-25T05:39:05.308Z,98491.58
2018-06-25T05:40:09.990Z,98490.86
2018-06-25T05:41:14.656Z,98491.44
2018-06-25T05:42:21.646Z,98495.22
2018-06-25T05:43:26.285Z,98496.62
2018-06-25T05:44:30.954Z,98492.47
2018-06-25T05:45:35.630Z,98501.92
2018-06-25T05:46:40.341Z,98501.48
2018-06-25T05:47:45.010Z,98496.53
2018-06-25T05:48:49.915Z,98504.20
2018-06-25T05:49:54.460Z,98504.34
2018-06-25T05:50:59.064Z,98500.64
2018-06-25T05:52:03.625Z,98503.72
2018-06-25T05:53:09.008Z,98500.11
2018-06-25T05:54:13.607Z,98495.85
2018-06-25T05:55:18.661Z,98500.09
2018-06-25T05:56:23.280Z,98498.73
2018-06-25T05:57:28.916Z,98505.53
2018-06-25T05:58:34.378Z,98504.91
2018-06-25T05:59:38.921Z,98505.89
2018-06-25T06:00:43.651Z,98506.17
2018-06-25T06:01:48.669Z,98503.83
2018-06-25T06:02:53.209Z,98508.89
2018-06-25T06:03:57.747Z,98509.78
2018-06-25T06:05:02.339Z,98511.12
2018-06-25T06:06:06.947Z,98516.81
2018-06-25T06:07:11.598Z,98512.11
2018-06-25T06:08:16.528Z,98515.92
2018-06-25T06:09:21.565Z,98512.67
2018-06-25T06:10:26.123Z,98515.45
2018-06-25T06:11:31.469Z,98512.64
2018-06-25T06:12:36.013Z,98513.81
2018-06-25T06:13:40.574Z,98515.71
2018-06-25T06:14:45.655Z,98511.02
2018-06-25T06:15:50.254Z,98506.69
2018-06-25T06:16:55.037Z,98509.91
2018-06-25T06:17:59.611Z,98510.44
2018-06-25T06:19:04.273Z,98509.18
2018-06-25T06:20:08.885Z,98506.59
2018-06-25T06:21:14.129Z,98512.75
2018-06-25T06:22:18.790Z,98509.51
2018-06-25T06:23:23.454Z,98511.03
2018-06-25T06:24:28.281Z,98507.11
2018-06-25T06:25:32.895Z,98509.23
2018-06-25T06:26:37.528Z,98510.21
2018-06-25T06:27:42.528Z,98507.92
2018-06-25T06:28:48.001Z,98515.92
2018-06-25T06:29:52.601Z,98509.95
2018-06-25T06:30:58.038Z,98511.62
2018-06-25T06:32:02.643Z,98516.48
2018-06-25T06:33:07.221Z,98519.42
2018-06-25T06:34:12.186Z,98523.17
2018-06-25T06:35:17.487Z,98525.09
2018-06-25T06:36:22.028Z,98526.56
2018-06-25T06:37:26.777Z,98522.70
2018-06-25T06:38:31.351Z,98521.79
2018-06-25T06:39:35.901Z,98533.70
2018-06-25T06:40:40.456Z,98528.41
2018-06-25T06:41:46.804Z,98537.60
2018-06-25T06:42:52.062Z,98531.83
2018-06-25T06:43:57.503Z,98533.00
2018-06-25T06:45:02.177Z,98542.53
2018-06-25T06:46:07.222Z,98537.47
2018-06-25T06:47:15.474Z,98538.16
2018-06-25T06:48:20.025Z,98541.08
2018-06-25T06:49:26.528Z,98541.59
2018-06-25T06:50:31.570Z,98542.23
2018-06-25T06:51:36.102Z,98540.98
2018-06-25T06:52:42.569Z,98540.88
2018-06-25T06:53:47.097Z,98542.76
2018-06-25T06:54:53.209Z,98540.88
2018-06-25T06:55:57.695Z,98545.95
2018-06-25T06:57:02.229Z,98548.31
2018-06-25T06:58:06.806Z,98552.30
2018-06-25T06:59:12.840Z,98552.69
2018-06-25T07:00:17.490Z,98549.53
2018-06-25T07:01:23.134Z,98550.63
2018-06-25T07:02:27.736Z,98551.18
2018-06-25T07:03:33.165Z,98555.27
2018-06-25T07:04:37.761Z,98553.61
2018-06-25T07:05:42.746Z,98552.90
2018-06-25T07:06:47.413Z,98548.17
2018-06-25T07:07:52.104Z,98551.39
2018-06-25T07:08:56.846Z,98549.48
2018-06-25T07:10:01.489Z,98544.67
2018-06-25T07:11:06.249Z,98547.17
2018-06-25T07:12:11.075Z,98549.75
2018-06-25T07:13:15.587Z,98546.37
2018-06-25T07:14:20.132Z,98547.39
2018-06-25T07:15:25.651Z,98544.38
2018-06-25T07:16:31.672Z,98542.76
2018-06-25T07:17:37.596Z,98543.90
2018-06-25T07:18:44.232Z,98543.58
2018-06-25T07:19:49.748Z,98539.42
2018-06-25T07:20:54.359Z,98543.06
2018-06-25T07:21:59.000Z,98542.77
2018-06-25T07:23:03.670Z,98542.77
2018-06-25T07:24:10.917Z,98542.14
2018-06-25T07:25:17.256Z,98544.39
2018-06-25T07:26:22.592Z,98548.80
2018-06-25T07:27:28.804Z,98546.98
2018-06-25T07:28:34.287Z,98546.86
2018-06-25T07:29:39.787Z,98548.36
2018-06-25T07:30:44.425Z,98542.88
2018-06-25T07:31:49.398Z,98546.98
2018-06-25T07:32:54.552Z,98544.80
2018-06-25T07:33:59.258Z,98540.63
2018-06-25T07:35:04.278Z,98549.94
2018-06-25T07:36:12.512Z,98545.41
2018-06-25T07:37:17.589Z,98553.12
2018-06-25T07:38:22.575Z,98547.94
2018-06-25T07:39:27.223Z,98547.42
2018-06-25T07:40:32.438Z,98551.77
2018-06-25T07:41:37.644Z,98551.88
2018-06-25T07:42:42.587Z,98552.44
2018-06-25T07:43:48.316Z,98552.44
2018-06-25T07:44:53.450Z,98552.19
2018-06-25T07:45:57.988Z,98550.39
2018-06-25T07:47:02.555Z,98550.78
2018-06-25T07:48:07.749Z,98550.33
2018-06-25T07:49:12.225Z,98549.89
2018-06-25T07:50:17.859Z,98552.33
2018-06-25T07:51:22.669Z,98551.92
2018-06-25T07:52:27.767Z,98550.70
2018-06-25T07:53:33.072Z,98552.23
2018-06-25T07:54:37.972Z,98555.58
2018-06-25T07:55:42.571Z,98557.88
2018-06-25T07:56:47.228Z,98561.52
2018-06-25T07:57:52.959Z,98560.87
2018-06-25T07:58:58.686Z,98559.74
2018-06-25T08:00:03.474Z,98562.34
2018-06-25T08:01:08.191Z,98559.82
2018-06-25T08:02:13.761Z,98554.61
2018-06-25T08:03:18.852Z,98556.70
2018-06-25T08:04:24.730Z,98547.75
2018-06-25T08:05:30.137Z,98557.66
2018-06-25T08:06:36.488Z,98549.55
2018-06-25T08:07:41.753Z,98548.73
2018-06-25T08:08:47.768Z,98556.70
2018-06-25T08:09:52.485Z,98557.97
2018-06-25T08:10:57.856Z,98556.03
2018-06-25T08:12:02.556Z,98565.17
2018-06-25T08:13:09.756Z,98556.45
2018-06-25T08:14:14.588Z,98560.05
2018-06-25T08:15:20.832Z,98562.69
2018-06-25T08:16:25.782Z,98563.89
2018-06-25T08:17:31.072Z,98568.05
2018-06-25T08:18:36.457Z,98566.88
2018-06-25T08:19:41.110Z,98572.41
2018-06-25T08:20:46.689Z,98564.62
2018-06-25T08:21:51.467Z,98570.34
2018-06-25T08:22:56.164Z,98576.59
2018-06-25T08:24:01.239Z,98570.90
2018-06-25T08:25:05.857Z,98573.66
2018-06-25T08:26:11.254Z,98576.48
2018-06-25T08:27:15.818Z,98580.97
2018-06-25T08:28:22.195Z,98583.86
2018-06-25T08:29:27.576Z,98585.13
2018-06-25T08:30:33.333Z,98583.50
2018-06-25T08:31:38.378Z,98579.49
2018-06-25T08:32:42.881Z,98581.41
2018-06-25T08:33:47.490Z,98586.64
2018-06-25T08:34:52.460Z,98583.51
2018-06-25T08:35:57.055Z,98592.91
2018-06-25T08:37:01.960Z,98591.34
2018-06-25T08:38:06.772Z,98592.99
2018-06-25T08:39:13.750Z,98592.29
2018-06-25T08:40:18.355Z,98591.45
2018-06-25T08:41:23.522Z,98592.18
2018-06-25T08:42:28.260Z,98593.07
2018-06-25T08:43:36.241Z,98594.53
2018-06-25T08:44:41.461Z,98598.37
2018-06-25T08:45:46.094Z,98596.97
2018-06-25T08:46:50.650Z,98600.56
2018-06-25T08:47:56.692Z,98596.64
2018-06-25T08:49:01.568Z,98597.67
2018-06-25T08:50:06.498Z,98601.80
2018-06-25T08:51:11.000Z,98602.84
2018-06-25T08:52:16.459Z,98602.72
2018-06-25T08:53:21.009Z,98603.02
2018-06-25T08:54:25.564Z,98601.73
2018-06-25T08:55:30.214Z,98603.72
2018-06-25T08:56:36.076Z,98605.10
2018-06-25T08:57:40.819Z,98605.13
2018-06-25T08:58:45.425Z,98605.40
2018-06-25T09:01:02.830Z,98606.35
2018-06-25T09:02:07.495Z,98602.30
2018-06-25T09:03:12.560Z,98600.97
2018-06-25T09:04:17.604Z,98606.52
2018-06-25T09:05:22.316Z,98605.64
2018-06-25T09:06:28.079Z,98603.86
2018-06-25T09:07:32.835Z,98605.13
2018-06-25T09:08:38.729Z,98605.09
2018-06-25T09:09:44.761Z,98610.55
2018-06-25T09:10:50.285Z,98615.52
2018-06-25T09:11:54.970Z,98610.21
2018-06-25T09:13:02.348Z,98609.97
2018-06-25T09:14:07.268Z,98611.56
2018-06-25T09:15:12.020Z,98618.78
2018-06-25T09:16:17.177Z,98610.05
2018-06-25T09:17:22.220Z,98609.27
2018-06-25T09:18:28.069Z,98605.56
2018-06-25T09:19:33.298Z,98611.94
2018-06-25T09:20:39.408Z,98607.91
2018-06-25T09:21:45.761Z,98611.28
2018-06-25T09:22:54.355Z,98610.22
2018-06-25T09:24:00.531Z,98607.78
2018-06-25T09:25:05.229Z,98602.42
2018-06-25T09:26:09.861Z,98605.15
2018-06-25T09:27:15.468Z,98604.30
2018-06-25T09:28:20.542Z,98604.17
2018-06-25T09:29:25.541Z,98609.28
2018-06-25T09:30:31.495Z,98614.33
2018-06-25T09:31:38.661Z,98611.02
2018-06-25T09:32:43.465Z,98615.61
2018-06-25T09:33:48.185Z,98617.73
2018-06-25T09:34:53.383Z,98620.94
2018-06-25T09:35:59.826Z,98612.14
2018-06-25T09:37:05.124Z,98619.41
2018-06-25T09:38:11.159Z,98617.80
2018-06-25T09:39:18.809Z,98617.44
2018-06-25T09:40:24.009Z,98615.73
2018-06-25T09:41:30.385Z,98615.35
2018-06-25T09:42:35.823Z,98623.23
2018-06-25T09:43:41.590Z,98622.33
2018-06-25T09:44:46.257Z,98620.26
2018-06-25T09:45:50.842Z,98612.02
2018-06-25T09:46:55.465Z,98618.72
2018-06-25T09:48:00.417Z,98613.08
2018-06-25T09:49:05.061Z,98610.65
2018-06-25T09:50:10.205Z,98612.82
2018-06-25T09:51:15.646Z,98613.30
2018-06-25T09:52:20.206Z,98614.80
2018-06-25T09:53:25.453Z,98610.50
2018-06-25T09:54:31.214Z,98612.82
2018-06-25T09:55:36.810Z,98618.73
2018-06-25T09:56:42.356Z,98615.38
2018-06-25T09:57:47.521Z,98618.41
2018-06-25T09:58:52.006Z,98617.15
2018-06-25T09:59:56.634Z,98618.52
2018-06-25T10:01:06.569Z,98616.31
2018-06-25T10:02:11.952Z,98623.25
2018-06-25T10:03:16.585Z,98621.98
2018-06-25T10:04:22.922Z,98614.48
2018-06-25T10:05:27.502Z,98612.38
2018-06-25T10:06:31.990Z,98619.31
2018-06-25T10:07:38.441Z,98617.83
2018-06-25T10:08:43.190Z,98617.11
2018-06-25T10:09:48.668Z,98625.67
2018-06-25T10:11:00.052Z,98622.45
2018-06-25T10:12:04.807Z,98626.05
2018-06-25T10:13:09.533Z,98621.30
2018-06-25T10:14:14.697Z,98623.70
2018-06-25T10:15:20.449Z,98621.73
2018-06-25T10:16:25.154Z,98626.96
2018-06-25T10:17:30.612Z,98621.42
2018-06-25T10:18:35.322Z,98624.19
2018-06-25T10:19:40.001Z,98626.73
2018-06-25T10:20:46.448Z,98624.42
2018-06-25T10:21:51.357Z,98624.99
2018-06-25T10:22:56.381Z,98624.77
2018-06-25T10:24:01.247Z,98626.05
2018-06-25T10:25:07.712Z,98633.22
2018-06-25T10:26:13.672Z,98631.59
2018-06-25T10:27:19.640Z,98633.34
2018-06-25T10:28:24.541Z,98635.30
2018-06-25T10:29:29.191Z,98634.50
2018-06-25T10:30:34.737Z,98639.09
2018-06-25T10:31:40.551Z,98636.56
2018-06-25T10:32:48.403Z,98635.42
2018-06-25T10:33:53.639Z,98637.63
2018-06-25T10:35:00.462Z,98637.16
2018-06-25T10:36:10.851Z,98631.83
2018-06-25T10:37:15.545Z,98634.03
2018-06-25T10:38:22.823Z,98629.76
2018-06-25T10:39:28.229Z,98634.84
2018-06-25T10:40:33.189Z,98630.33
2018-06-25T10:41:42.626Z,98631.02
2018-06-25T10:42:49.337Z,98631.71
2018-06-25T10:43:54.299Z,98627.77
2018-06-25T10:44:59.019Z,98637.97
2018-06-25T10:46:03.761Z,98638.30
2018-06-25T10:47:09.918Z,98641.33
2018-06-25T10:48:16.082Z,98638.19
2018-06-25T10:49:20.761Z,98642.13
2018-06-25T10:50:25.754Z,98640.62
2018-06-25T10:51:33.263Z,98641.56
2018-06-25T10:52:44.781Z,98635.89
2018-06-25T10:53:49.356Z,98636.66
2018-06-25T10:54:53.935Z,98639.89
2018-06-25T10:55:58.490Z,98638.27
2018-06-25T10:57:04.682Z,98637.96
2018-06-25T10:58:10.503Z,98630.91
2018-06-25T10:59:15.853Z,98637.69
2018-06-25T11:00:23.836Z,98637.23
2018-06-25T11:01:28.346Z,98638.41
2018-06-25T11:02:33.629Z,98636.22
2018-06-25T11:03:39.905Z,98642.24
2018-06-25T11:04:45.341Z,98645.02
2018-06-25T11:05:51.263Z,98642.45
2018-06-25T11:06:56.775Z,98645.81
2018-06-25T11:08:03.141Z,98639.45
2018-06-25T11:09:12.765Z,98643.70
2018-06-25T11:10:18.322Z,98639.68
2018-06-25T11:11:25.596Z,98638.06
2018-06-25T11:12:32.260Z,98633.54
2018-06-25T11:13:37.334Z,98638.53
2018-06-25T11:14:42.400Z,98640.38
2018-06-25T11:15:48.213Z,98642.11
2018-06-25T11:16:52.860Z,98639.58
2018-06-25T11:17:57.548Z,98642.11
2018-06-25T11:19:02.242Z,98643.52
2018-06-25T11:20:06.922Z,98645.59
2018-06-25T11:21:13.131Z,98640.49
2018-06-25T11:22:18.849Z,98639.58
2018-06-25T11:23:26.357Z,98639.94
2018-06-25T11:24:36.928Z,98634.83
2018-06-25T11:25:43.714Z,98641.44
2018-06-25T11:26:49.872Z,98641.09
2018-06-25T11:27:54.585Z,98645.83
2018-06-25T11:29:00.027Z,98649.52
2018-06-25T11:30:05.168Z,98648.16
2018-06-25T11:31:10.550Z,98651.61
2018-06-25T11:32:15.242Z,98646.53
2018-06-25T11:33:19.947Z,98644.45
2018-06-25T11:34:24.691Z,98653.11
2018-06-25T11:35:32.007Z,98645.00
2018-06-25T11:36:37.876Z,98644.09
2018-06-25T11:37:42.688Z,98639.92
2018-06-25T11:38:47.304Z,98643.27
2018-06-25T11:39:51.961Z,98642.44
2018-06-25T11:40:56.665Z,98641.31
2018-06-25T11:42:02.203Z,98643.41
2018-06-25T11:43:08.847Z,98642.71
2018-06-25T11:44:13.589Z,98649.65
2018-06-25T11:45:21.244Z,98643.27
2018-06-25T11:46:26.556Z,98646.98
2018-06-25T11:47:31.800Z,98645.47
2018-06-25T11:48:36.396Z,98641.42
2018-06-25T11:49:41.777Z,98636.09
2018-06-25T11:50:46.438Z,98640.16
2018-06-25T11:51:53.771Z,98645.24
2018-06-25T11:53:01.436Z,98644.20
2018-06-25T11:54:07.789Z,98641.86
2018-06-25T11:55:14.899Z,98646.71
2018-06-25T11:56:21.643Z,98641.16
2018-06-25T11:57:27.169Z,98646.39
2018-06-25T11:58:32.662Z,98651.27
2018-06-25T11:59:37.343Z,98650.78
2018-06-25T12:00:42.268Z,98645.23
2018-06-25T12:01:48.358Z,98647.91
2018-06-25T12:02:53.957Z,98651.27
2018-06-25T12:03:59.194Z,98652.53
2018-06-25T12:05:04.940Z,98647.80
2018-06-25T12:06:10.464Z,98658.20
2018-06-25T12:07:16.297Z,98649.66
2018-06-25T12:08:22.266Z,98655.33
2018-06-25T12:09:27.217Z,98650.13
2018-06-25T12:10:32.042Z,98656.26
2018-06-25T12:11:36.736Z,98657.39
2018-06-25T12:12:41.392Z,98655.19
2018-06-25T12:13:46.272Z,98663.78
2018-06-25T12:14:51.337Z,98658.33
2018-06-25T12:15:56.791Z,98661.81
2018-06-25T12:17:02.397Z,98655.42
2018-06-25T12:18:11.657Z,98659.32
2018-06-25T12:19:17.322Z,98658.52
2018-06-25T12:20:24.042Z,98661.91
2018-06-25T12:21:34.276Z,98656.12
2018-06-25T12:22:39.861Z,98656.81
2018-06-25T12:23:45.191Z,98661.93
2018-06-25T12:24:53.606Z,98657.66
2018-06-25T12:25:59.295Z,98655.67
2018-06-25T12:27:03.861Z,98658.10
2018-06-25T12:28:13.184Z,98654.04
2018-06-25T12:29:19.269Z,98653.70
2018-06-25T12:30:23.866Z,98657.76
2018-06-25T12:31:28.513Z,98658.55
2018-06-25T12:32:33.132Z,98653.45
2018-06-25T12:33:37.822Z,98654.28
2018-06-25T12:34:45.022Z,98659.48
2018-06-25T12:35:51.298Z,98663.55
2018-06-25T12:36:56.545Z,98656.14
2018-06-25T12:38:02.013Z,98661.58
2018-06-25T12:39:08.234Z,98659.03
2018-06-25T12:40:14.119Z,98660.63
2018-06-25T12:41:18.990Z,98664.33
2018-06-25T12:42:24.472Z,98654.28
2018-06-25T12:43:29.815Z,98661.09
2018-06-25T12:44:35.173Z,98661.92
2018-06-25T12:45:40.411Z,98661.07
2018-06-25T12:46:45.292Z,98658.31
2018-06-25T12:47:50.332Z,98658.31